sensor_id;sensor_type;location;lat;lon;timestamp;temperature;humidity
30336;DHT22;17142;47.990;7.846;2024-02-15T00:00:15;9.00;99.90
30336;DHT22;17142;47.990;7.846;2024-02-15T00:02:44;9.00;99.90
30336;DHT22;17142;47.990;7.846;2024-02-15T00:05:13;9.00;99.90
30336;DHT22;17142;47.990;7.846;2024-02-15T00:07:40;8.90;99.90
30336;DHT22;17142;47.990;7.846;2024-02-15T00:10:08;8.80;99.90
30336;DHT22;17142;47.990;7.846;2024-02-15T00:12:37;8.70;99.90
30336;DHT22;17142;47.990;7.846;2024-02-15T00:15:02;8.80;99.90
30336;DHT22;17142;47.990;7.846;2024-02-15T00:17:31;8.90;99.90
30336;DHT22;17142;47.990;7.846;2024-02-15T00:19:57;8.90;99.90
30336;DHT22;17142;47.990;7.846;2024-02-15T00:22:23;9.00;99.90
30336;DHT22;17142;47.990;7.846;2024-02-15T00:24:54;8.90;99.90
30336;DHT22;17142;47.990;7.846;2024-02-15T00:27:22;8.80;99.90
30336;DHT22;17142;47.990;7.846;2024-02-15T00:29:52;8.70;99.90
30336;DHT22;17142;47.990;7.846;2024-02-15T00:32:18;8.70;99.90
30336;DHT22;17142;47.990;7.846;2024-02-15T00:34:46;8.70;99.90
30336;DHT22;17142;47.990;7.846;2024-02-15T00:37:12;8.60;99.90
30336;DHT22;17142;47.990;7.846;2024-02-15T00:39:40;8.30;99.90
30336;DHT22;17142;47.990;7.846;2024-02-15T00:42:06;8.30;99.90
30336;DHT22;17142;47.990;7.846;2024-02-15T00:44:36;8.30;99.90
30336;DHT22;17142;47.990;7.846;2024-02-15T00:47:03;8.30;99.90
30336;DHT22;17142;47.990;7.846;2024-02-15T00:49:28;8.30;99.90
30336;DHT22;17142;47.990;7.846;2024-02-15T00:51:54;8.30;99.90
30336;DHT22;17142;47.990;7.846;2024-02-15T00:54:20;8.30;99.90
30336;DHT22;17142;47.990;7.846;2024-02-15T00:56:48;8.30;99.90
30336;DHT22;17142;47.990;7.846;2024-02-15T00:59:13;8.40;99.90
30336;DHT22;17142;47.990;7.846;2024-02-15T01:01:39;8.30;99.90
30336;DHT22;17142;47.990;7.846;2024-02-15T01:04:06;8.30;99.90
30336;DHT22;17142;47.990;7.846;2024-02-15T01:06:32;8.20;99.90
30336;DHT22;17142;47.990;7.846;2024-02-15T01:08:58;8.20;99.90
30336;DHT22;17142;47.990;7.846;2024-02-15T01:11:26;8.10;99.90
30336;DHT22;17142;47.990;7.846;2024-02-15T01:13:54;8.10;99.90
30336;DHT22;17142;47.990;7.846;2024-02-15T01:16:19;8.00;99.90
30336;DHT22;17142;47.990;7.846;2024-02-15T01:18:47;7.90;99.90
30336;DHT22;17142;47.990;7.846;2024-02-15T01:21:13;7.80;99.90
30336;DHT22;17142;47.990;7.846;2024-02-15T01:23:38;7.80;99.90
30336;DHT22;17142;47.990;7.846;2024-02-15T01:26:04;7.90;99.90
30336;DHT22;17142;47.990;7.846;2024-02-15T01:28:32;7.90;99.90
30336;DHT22;17142;47.990;7.846;2024-02-15T01:30:58;7.90;99.90
30336;DHT22;17142;47.990;7.846;2024-02-15T01:33:24;7.80;99.90
30336;DHT22;17142;47.990;7.846;2024-02-15T01:35:51;7.70;99.90
30336;DHT22;17142;47.990;7.846;2024-02-15T01:38:17;7.80;99.90
30336;DHT22;17142;47.990;7.846;2024-02-15T01:40:43;7.80;99.90
30336;DHT22;17142;47.990;7.846;2024-02-15T01:43:11;7.90;99.90
30336;DHT22;17142;47.990;7.846;2024-02-15T01:45:36;7.90;99.90
30336;DHT22;17142;47.990;7.846;2024-02-15T01:48:04;8.00;99.90
30336;DHT22;17142;47.990;7.846;2024-02-15T01:50:31;8.10;99.90
30336;DHT22;17142;47.990;7.846;2024-02-15T01:53:01;8.00;99.90
30336;DHT22;17142;47.990;7.846;2024-02-15T01:55:34;8.00;99.90
30336;DHT22;17142;47.990;7.846;2024-02-15T01:58:03;8.00;99.90
30336;DHT22;17142;47.990;7.846;2024-02-15T02:00:30;8.00;99.90
30336;DHT22;17142;47.990;7.846;2024-02-15T02:02:59;8.00;99.90
30336;DHT22;17142;47.990;7.846;2024-02-15T02:05:30;8.00;99.90
30336;DHT22;17142;47.990;7.846;2024-02-15T02:07:56;8.00;99.90
30336;DHT22;17142;47.990;7.846;2024-02-15T02:10:25;8.00;99.90
30336;DHT22;17142;47.990;7.846;2024-02-15T02:12:52;8.00;99.90
30336;DHT22;17142;47.990;7.846;2024-02-15T02:15:21;8.00;99.90
30336;DHT22;17142;47.990;7.846;2024-02-15T02:17:52;8.00;99.90
30336;DHT22;17142;47.990;7.846;2024-02-15T02:20:20;7.90;99.90
30336;DHT22;17142;47.990;7.846;2024-02-15T02:22:48;7.90;99.90
30336;DHT22;17142;47.990;7.846;2024-02-15T02:25:20;7.80;99.90
30336;DHT22;17142;47.990;7.846;2024-02-15T02:27:49;7.70;99.90
30336;DHT22;17142;47.990;7.846;2024-02-15T02:30:17;7.60;99.90
30336;DHT22;17142;47.990;7.846;2024-02-15T02:32:46;7.50;99.90
30336;DHT22;17142;47.990;7.846;2024-02-15T02:35:15;7.50;99.90
30336;DHT22;17142;47.990;7.846;2024-02-15T02:37:42;7.50;99.90
30336;DHT22;17142;47.990;7.846;2024-02-15T02:40:09;7.50;99.90
30336;DHT22;17142;47.990;7.846;2024-02-15T02:42:55;7.50;99.90
30336;DHT22;17142;47.990;7.846;2024-02-15T02:45:22;7.40;99.90
30336;DHT22;17142;47.990;7.846;2024-02-15T02:47:52;7.50;99.90
30336;DHT22;17142;47.990;7.846;2024-02-15T02:50:20;7.50;99.90
30336;DHT22;17142;47.990;7.846;2024-02-15T02:52:46;7.50;99.90
30336;DHT22;17142;47.990;7.846;2024-02-15T02:55:14;7.60;99.90
30336;DHT22;17142;47.990;7.846;2024-02-15T02:57:43;7.60;99.90
30336;DHT22;17142;47.990;7.846;2024-02-15T03:00:12;7.60;99.90
30336;DHT22;17142;47.990;7.846;2024-02-15T03:02:45;7.60;99.90
30336;DHT22;17142;47.990;7.846;2024-02-15T03:05:11;7.50;99.90
30336;DHT22;17142;47.990;7.846;2024-02-15T03:07:40;7.50;99.90
30336;DHT22;17142;47.990;7.846;2024-02-15T03:10:08;7.50;99.90
30336;DHT22;17142;47.990;7.846;2024-02-15T03:12:41;7.50;99.90
30336;DHT22;17142;47.990;7.846;2024-02-15T03:15:12;7.50;99.90
30336;DHT22;17142;47.990;7.846;2024-02-15T03:17:39;7.40;99.90
30336;DHT22;17142;47.990;7.846;2024-02-15T03:20:09;7.40;99.90
30336;DHT22;17142;47.990;7.846;2024-02-15T03:22:56;7.30;99.90
30336;DHT22;17142;47.990;7.846;2024-02-15T03:25:22;7.20;99.90
30336;DHT22;17142;47.990;7.846;2024-02-15T03:27:55;7.20;99.90
30336;DHT22;17142;47.990;7.846;2024-02-15T03:30:25;7.20;99.90
30336;DHT22;17142;47.990;7.846;2024-02-15T03:32:57;7.20;99.90
30336;DHT22;17142;47.990;7.846;2024-02-15T03:35:25;7.20;99.90
30336;DHT22;17142;47.990;7.846;2024-02-15T03:37:52;7.20;99.90
30336;DHT22;17142;47.990;7.846;2024-02-15T03:40:22;7.20;99.90
30336;DHT22;17142;47.990;7.846;2024-02-15T03:42:48;7.20;99.90
30336;DHT22;17142;47.990;7.846;2024-02-15T03:45:15;7.20;99.90
30336;DHT22;17142;47.990;7.846;2024-02-15T03:47:41;7.10;99.90
30336;DHT22;17142;47.990;7.846;2024-02-15T03:50:09;7.10;99.90
30336;DHT22;17142;47.990;7.846;2024-02-15T03:52:35;7.10;99.90
30336;DHT22;17142;47.990;7.846;2024-02-15T03:55:01;7.10;99.90
30336;DHT22;17142;47.990;7.846;2024-02-15T03:57:28;7.10;99.90
30336;DHT22;17142;47.990;7.846;2024-02-15T03:59:54;7.10;99.90
30336;DHT22;17142;47.990;7.846;2024-02-15T04:02:23;7.20;99.90
30336;DHT22;17142;47.990;7.846;2024-02-15T04:04:58;7.20;99.90
30336;DHT22;17142;47.990;7.846;2024-02-15T04:07:23;7.20;99.90
30336;DHT22;17142;47.990;7.846;2024-02-15T04:09:52;7.20;99.90
30336;DHT22;17142;47.990;7.846;2024-02-15T04:12:18;7.10;99.90
30336;DHT22;17142;47.990;7.846;2024-02-15T04:14:44;7.10;99.90
30336;DHT22;17142;47.990;7.846;2024-02-15T04:17:19;7.10;99.90
30336;DHT22;17142;47.990;7.846;2024-02-15T04:19:47;7.10;99.90
30336;DHT22;17142;47.990;7.846;2024-02-15T04:22:15;7.10;99.90
30336;DHT22;17142;47.990;7.846;2024-02-15T04:24:44;7.10;99.90
30336;DHT22;17142;47.990;7.846;2024-02-15T04:27:11;7.10;99.90
30336;DHT22;17142;47.990;7.846;2024-02-15T04:29:40;7.00;99.90
30336;DHT22;17142;47.990;7.846;2024-02-15T04:32:07;7.00;99.90
30336;DHT22;17142;47.990;7.846;2024-02-15T04:34:42;7.00;99.90
30336;DHT22;17142;47.990;7.846;2024-02-15T04:37:08;7.00;99.90
30336;DHT22;17142;47.990;7.846;2024-02-15T04:39:34;6.90;99.90
30336;DHT22;17142;47.990;7.846;2024-02-15T04:42:04;7.00;99.90
30336;DHT22;17142;47.990;7.846;2024-02-15T04:44:34;7.00;99.90
30336;DHT22;17142;47.990;7.846;2024-02-15T04:47:01;7.00;99.90
30336;DHT22;17142;47.990;7.846;2024-02-15T04:49:29;7.00;99.90
30336;DHT22;17142;47.990;7.846;2024-02-15T04:51:55;7.00;99.90
30336;DHT22;17142;47.990;7.846;2024-02-15T04:54:22;6.90;99.90
30336;DHT22;17142;47.990;7.846;2024-02-15T04:56:48;6.90;99.90
30336;DHT22;17142;47.990;7.846;2024-02-15T04:59:18;7.00;99.90
30336;DHT22;17142;47.990;7.846;2024-02-15T05:01:48;7.00;99.90
30336;DHT22;17142;47.990;7.846;2024-02-15T05:04:14;7.00;99.90
30336;DHT22;17142;47.990;7.846;2024-02-15T05:06:43;7.00;99.90
30336;DHT22;17142;47.990;7.846;2024-02-15T05:09:10;7.00;99.90
30336;DHT22;17142;47.990;7.846;2024-02-15T05:11:40;6.90;99.90
30336;DHT22;17142;47.990;7.846;2024-02-15T05:14:15;6.90;99.90
30336;DHT22;17142;47.990;7.846;2024-02-15T05:16:49;6.90;99.90
30336;DHT22;17142;47.990;7.846;2024-02-15T05:19:15;6.90;99.90
30336;DHT22;17142;47.990;7.846;2024-02-15T05:21:42;6.90;99.90
30336;DHT22;17142;47.990;7.846;2024-02-15T05:24:12;7.00;99.90
30336;DHT22;17142;47.990;7.846;2024-02-15T05:26:39;6.90;99.90
30336;DHT22;17142;47.990;7.846;2024-02-15T05:29:05;6.90;99.90
30336;DHT22;17142;47.990;7.846;2024-02-15T05:31:31;6.90;99.90
30336;DHT22;17142;47.990;7.846;2024-02-15T05:33:56;7.00;99.90
30336;DHT22;17142;47.990;7.846;2024-02-15T05:36:23;7.00;99.90
30336;DHT22;17142;47.990;7.846;2024-02-15T05:38:53;7.00;99.90
30336;DHT22;17142;47.990;7.846;2024-02-15T05:41:19;6.90;99.90
30336;DHT22;17142;47.990;7.846;2024-02-15T05:43:48;6.90;99.90
30336;DHT22;17142;47.990;7.846;2024-02-15T05:46:18;6.90;99.90
30336;DHT22;17142;47.990;7.846;2024-02-15T05:48:46;6.90;99.90
30336;DHT22;17142;47.990;7.846;2024-02-15T05:51:12;6.90;99.90
30336;DHT22;17142;47.990;7.846;2024-02-15T05:53:41;7.00;99.90
30336;DHT22;17142;47.990;7.846;2024-02-15T05:56:08;7.10;99.90
30336;DHT22;17142;47.990;7.846;2024-02-15T05:58:34;7.00;99.90
30336;DHT22;17142;47.990;7.846;2024-02-15T06:01:03;6.90;99.90
30336;DHT22;17142;47.990;7.846;2024-02-15T06:03:33;6.90;99.90
30336;DHT22;17142;47.990;7.846;2024-02-15T06:06:02;6.90;99.90
30336;DHT22;17142;47.990;7.846;2024-02-15T06:08:34;6.90;99.90
30336;DHT22;17142;47.990;7.846;2024-02-15T06:11:00;6.90;99.90
30336;DHT22;17142;47.990;7.846;2024-02-15T06:13:29;6.90;99.90
30336;DHT22;17142;47.990;7.846;2024-02-15T06:15:56;6.90;99.90
30336;DHT22;17142;47.990;7.846;2024-02-15T06:18:23;6.90;99.90
30336;DHT22;17142;47.990;7.846;2024-02-15T06:20:50;6.90;99.90
30336;DHT22;17142;47.990;7.846;2024-02-15T06:23:18;7.00;99.90
30336;DHT22;17142;47.990;7.846;2024-02-15T06:25:45;7.00;99.90
30336;DHT22;17142;47.990;7.846;2024-02-15T06:28:13;7.00;99.90
30336;DHT22;17142;47.990;7.846;2024-02-15T06:30:46;7.00;99.90
30336;DHT22;17142;47.990;7.846;2024-02-15T06:33:30;7.20;99.90
30336;DHT22;17142;47.990;7.846;2024-02-15T06:36:17;7.20;99.90
30336;DHT22;17142;47.990;7.846;2024-02-15T06:39:00;7.20;99.90
30336;DHT22;17142;47.990;7.846;2024-02-15T06:41:44;7.30;99.90
30336;DHT22;17142;47.990;7.846;2024-02-15T06:44:10;7.30;99.90
30336;DHT22;17142;47.990;7.846;2024-02-15T06:46:37;7.40;99.90
30336;DHT22;17142;47.990;7.846;2024-02-15T06:49:03;7.40;99.90
30336;DHT22;17142;47.990;7.846;2024-02-15T06:51:32;7.40;99.90
30336;DHT22;17142;47.990;7.846;2024-02-15T06:53:58;7.40;99.90
30336;DHT22;17142;47.990;7.846;2024-02-15T06:56:24;7.40;99.90
30336;DHT22;17142;47.990;7.846;2024-02-15T06:58:50;7.50;99.90
30336;DHT22;17142;47.990;7.846;2024-02-15T07:01:15;7.50;99.90
30336;DHT22;17142;47.990;7.846;2024-02-15T07:03:43;7.60;99.90
30336;DHT22;17142;47.990;7.846;2024-02-15T07:06:15;7.60;99.90
30336;DHT22;17142;47.990;7.846;2024-02-15T07:08:42;7.60;99.90
30336;DHT22;17142;47.990;7.846;2024-02-15T07:11:08;7.70;99.90
30336;DHT22;17142;47.990;7.846;2024-02-15T07:13:35;7.70;99.90
30336;DHT22;17142;47.990;7.846;2024-02-15T07:16:06;7.80;99.90
30336;DHT22;17142;47.990;7.846;2024-02-15T07:18:33;7.90;99.90
30336;DHT22;17142;47.990;7.846;2024-02-15T07:20:58;7.90;99.90
30336;DHT22;17142;47.990;7.846;2024-02-15T07:23:26;8.00;99.90
30336;DHT22;17142;47.990;7.846;2024-02-15T07:25:52;8.10;99.90
30336;DHT22;17142;47.990;7.846;2024-02-15T07:28:20;8.10;99.90
30336;DHT22;17142;47.990;7.846;2024-02-15T07:30:46;8.30;99.90
30336;DHT22;17142;47.990;7.846;2024-02-15T07:33:14;8.30;99.90
30336;DHT22;17142;47.990;7.846;2024-02-15T07:35:46;8.30;99.90
30336;DHT22;17142;47.990;7.846;2024-02-15T07:38:11;8.30;99.90
30336;DHT22;17142;47.990;7.846;2024-02-15T07:40:39;8.40;99.90
30336;DHT22;17142;47.990;7.846;2024-02-15T07:43:08;8.50;99.90
30336;DHT22;17142;47.990;7.846;2024-02-15T07:45:37;8.60;99.90
30336;DHT22;17142;47.990;7.846;2024-02-15T07:48:06;8.80;99.90
30336;DHT22;17142;47.990;7.846;2024-02-15T07:50:32;8.80;99.90
30336;DHT22;17142;47.990;7.846;2024-02-15T07:52:58;8.80;99.90
30336;DHT22;17142;47.990;7.846;2024-02-15T07:55:24;8.90;99.90
30336;DHT22;17142;47.990;7.846;2024-02-15T07:57:53;9.00;99.90
30336;DHT22;17142;47.990;7.846;2024-02-15T08:00:19;9.00;99.90
30336;DHT22;17142;47.990;7.846;2024-02-15T08:02:49;9.10;99.90
30336;DHT22;17142;47.990;7.846;2024-02-15T08:05:15;9.10;99.90
30336;DHT22;17142;47.990;7.846;2024-02-15T08:07:42;9.20;99.90
30336;DHT22;17142;47.990;7.846;2024-02-15T08:10:14;9.30;99.90
30336;DHT22;17142;47.990;7.846;2024-02-15T08:12:44;9.40;99.90
30336;DHT22;17142;47.990;7.846;2024-02-15T08:15:10;9.40;99.90
30336;DHT22;17142;47.990;7.846;2024-02-15T08:17:43;9.60;99.90
30336;DHT22;17142;47.990;7.846;2024-02-15T08:20:12;9.80;99.90
30336;DHT22;17142;47.990;7.846;2024-02-15T08:22:39;10.10;99.90
30336;DHT22;17142;47.990;7.846;2024-02-15T08:25:10;10.20;99.90
30336;DHT22;17142;47.990;7.846;2024-02-15T08:27:37;10.20;99.90
30336;DHT22;17142;47.990;7.846;2024-02-15T08:30:08;10.10;99.90
30336;DHT22;17142;47.990;7.846;2024-02-15T08:32:35;10.10;99.90
30336;DHT22;17142;47.990;7.846;2024-02-15T08:35:03;10.30;99.90
30336;DHT22;17142;47.990;7.846;2024-02-15T08:37:30;10.40;99.90
30336;DHT22;17142;47.990;7.846;2024-02-15T08:39:57;10.50;99.90
30336;DHT22;17142;47.990;7.846;2024-02-15T08:42:25;10.70;99.90
30336;DHT22;17142;47.990;7.846;2024-02-15T08:44:52;10.80;99.90
30336;DHT22;17142;47.990;7.846;2024-02-15T08:47:17;11.00;99.90
30336;DHT22;17142;47.990;7.846;2024-02-15T08:49:45;11.20;99.90
30336;DHT22;17142;47.990;7.846;2024-02-15T08:52:11;11.30;99.90
30336;DHT22;17142;47.990;7.846;2024-02-15T08:54:36;11.50;99.90
30336;DHT22;17142;47.990;7.846;2024-02-15T08:57:06;11.50;99.90
30336;DHT22;17142;47.990;7.846;2024-02-15T08:59:32;11.50;99.90
30336;DHT22;17142;47.990;7.846;2024-02-15T09:01:58;11.50;99.90
30336;DHT22;17142;47.990;7.846;2024-02-15T09:04:28;11.50;99.90
30336;DHT22;17142;47.990;7.846;2024-02-15T09:06:55;11.60;99.90
30336;DHT22;17142;47.990;7.846;2024-02-15T09:09:20;11.50;99.90
30336;DHT22;17142;47.990;7.846;2024-02-15T09:11:46;11.40;99.90
30336;DHT22;17142;47.990;7.846;2024-02-15T09:14:11;11.50;99.90
30336;DHT22;17142;47.990;7.846;2024-02-15T09:16:37;11.50;99.90
30336;DHT22;17142;47.990;7.846;2024-02-15T09:24:16;11.60;99.90
30336;DHT22;17142;47.990;7.846;2024-02-15T09:26:42;11.60;99.90
30336;DHT22;17142;47.990;7.846;2024-02-15T09:29:08;11.70;99.90
30336;DHT22;17142;47.990;7.846;2024-02-15T09:31:34;11.80;99.90
30336;DHT22;17142;47.990;7.846;2024-02-15T09:34:02;11.90;99.90
30336;DHT22;17142;47.990;7.846;2024-02-15T09:36:34;12.10;99.90
30336;DHT22;17142;47.990;7.846;2024-02-15T09:39:00;12.10;99.90
30336;DHT22;17142;47.990;7.846;2024-02-15T09:41:26;12.30;99.90
30336;DHT22;17142;47.990;7.846;2024-02-15T09:43:51;12.40;99.90
30336;DHT22;17142;47.990;7.846;2024-02-15T09:46:25;12.60;99.90
30336;DHT22;17142;47.990;7.846;2024-02-15T09:48:51;12.80;99.90
30336;DHT22;17142;47.990;7.846;2024-02-15T09:51:25;12.90;99.90
30336;DHT22;17142;47.990;7.846;2024-02-15T09:53:51;13.00;99.90
30336;DHT22;17142;47.990;7.846;2024-02-15T09:56:20;13.10;99.90
30336;DHT22;17142;47.990;7.846;2024-02-15T09:58:50;13.30;99.90
30336;DHT22;17142;47.990;7.846;2024-02-15T10:01:19;13.60;99.90
30336;DHT22;17142;47.990;7.846;2024-02-15T10:03:49;13.60;99.90
30336;DHT22;17142;47.990;7.846;2024-02-15T10:06:18;13.90;99.90
30336;DHT22;17142;47.990;7.846;2024-02-15T10:08:44;14.00;99.90
30336;DHT22;17142;47.990;7.846;2024-02-15T10:11:12;13.80;99.90
30336;DHT22;17142;47.990;7.846;2024-02-15T10:13:40;13.50;99.90
30336;DHT22;17142;47.990;7.846;2024-02-15T10:16:19;13.10;99.90
30336;DHT22;17142;47.990;7.846;2024-02-15T10:18:50;12.80;99.90
30336;DHT22;17142;47.990;7.846;2024-02-15T10:21:36;12.40;99.90
30336;DHT22;17142;47.990;7.846;2024-02-15T10:24:08;12.20;99.90
30336;DHT22;17142;47.990;7.846;2024-02-15T10:26:35;12.30;99.90
30336;DHT22;17142;47.990;7.846;2024-02-15T10:29:11;12.30;99.90
30336;DHT22;17142;47.990;7.846;2024-02-15T10:31:39;12.20;99.90
30336;DHT22;17142;47.990;7.846;2024-02-15T10:34:07;12.20;99.90
30336;DHT22;17142;47.990;7.846;2024-02-15T10:36:36;12.10;99.90
30336;DHT22;17142;47.990;7.846;2024-02-15T10:39:15;12.30;99.90
30336;DHT22;17142;47.990;7.846;2024-02-15T10:41:49;12.50;99.90
30336;DHT22;17142;47.990;7.846;2024-02-15T10:44:22;12.70;99.90
30336;DHT22;17142;47.990;7.846;2024-02-15T10:46:53;12.90;99.90
30336;DHT22;17142;47.990;7.846;2024-02-15T10:49:24;13.10;99.90
30336;DHT22;17142;47.990;7.846;2024-02-15T10:51:58;13.20;99.90
30336;DHT22;17142;47.990;7.846;2024-02-15T10:57:06;13.00;99.90
30336;DHT22;17142;47.990;7.846;2024-02-15T10:59:34;13.20;99.90
30336;DHT22;17142;47.990;7.846;2024-02-15T11:02:34;13.40;99.90
30336;DHT22;17142;47.990;7.846;2024-02-15T11:05:06;13.20;99.90
30336;DHT22;17142;47.990;7.846;2024-02-15T11:07:38;13.00;99.90
30336;DHT22;17142;47.990;7.846;2024-02-15T11:10:05;13.20;99.90
30336;DHT22;17142;47.990;7.846;2024-02-15T11:12:36;13.30;99.90
30336;DHT22;17142;47.990;7.846;2024-02-15T11:15:03;13.00;99.90
30336;DHT22;17142;47.990;7.846;2024-02-15T11:20:11;13.20;99.90
30336;DHT22;17142;47.990;7.846;2024-02-15T11:22:58;13.40;99.90
30336;DHT22;17142;47.990;7.846;2024-02-15T11:25:34;13.60;99.90
30336;DHT22;17142;47.990;7.846;2024-02-15T11:30:48;13.40;99.90
30336;DHT22;17142;47.990;7.846;2024-02-15T11:38:31;13.70;99.90
30336;DHT22;17142;47.990;7.846;2024-02-15T11:46:18;14.10;99.90
30336;DHT22;17142;47.990;7.846;2024-02-15T11:48:50;14.20;99.90
30336;DHT22;17142;47.990;7.846;2024-02-15T11:51:38;14.40;99.90
30336;DHT22;17142;47.990;7.846;2024-02-15T11:54:11;14.50;99.90
30336;DHT22;17142;47.990;7.846;2024-02-15T11:56:56;14.60;99.90
30336;DHT22;17142;47.990;7.846;2024-02-15T11:59:42;14.40;99.90
30336;DHT22;17142;47.990;7.846;2024-02-15T12:02:27;14.40;99.90
30336;DHT22;17142;47.990;7.846;2024-02-15T12:05:11;14.40;99.90
30336;DHT22;17142;47.990;7.846;2024-02-15T12:07:55;14.60;99.90
30336;DHT22;17142;47.990;7.846;2024-02-15T12:10:40;14.50;99.90
30336;DHT22;17142;47.990;7.846;2024-02-15T12:13:24;14.50;99.90
30336;DHT22;17142;47.990;7.846;2024-02-15T12:16:15;14.60;99.90
30336;DHT22;17142;47.990;7.846;2024-02-15T12:19:00;15.00;99.90
30336;DHT22;17142;47.990;7.846;2024-02-15T12:21:26;15.10;99.90
30336;DHT22;17142;47.990;7.846;2024-02-15T12:23:53;15.30;99.90
30336;DHT22;17142;47.990;7.846;2024-02-15T12:26:21;15.40;99.90
30336;DHT22;17142;47.990;7.846;2024-02-15T12:28:55;15.30;99.90
30336;DHT22;17142;47.990;7.846;2024-02-15T12:31:24;15.40;99.90
30336;DHT22;17142;47.990;7.846;2024-02-15T12:34:20;15.30;99.90
30336;DHT22;17142;47.990;7.846;2024-02-15T12:36:48;15.30;99.90
30336;DHT22;17142;47.990;7.846;2024-02-15T12:39:24;15.00;99.90
30336;DHT22;17142;47.990;7.846;2024-02-15T12:41:50;15.30;99.90
30336;DHT22;17142;47.990;7.846;2024-02-15T12:44:17;15.20;99.90
30336;DHT22;17142;47.990;7.846;2024-02-15T12:46:45;15.40;99.90
30336;DHT22;17142;47.990;7.846;2024-02-15T12:51:51;15.60;99.90
30336;DHT22;17142;47.990;7.846;2024-02-15T12:54:23;15.60;99.90
30336;DHT22;17142;47.990;7.846;2024-02-15T12:57:07;15.60;99.90
30336;DHT22;17142;47.990;7.846;2024-02-15T12:59:35;15.50;99.90
30336;DHT22;17142;47.990;7.846;2024-02-15T13:02:05;15.60;99.90
30336;DHT22;17142;47.990;7.846;2024-02-15T13:04:30;15.60;99.90
30336;DHT22;17142;47.990;7.846;2024-02-15T13:06:58;15.70;99.90
30336;DHT22;17142;47.990;7.846;2024-02-15T13:09:24;15.70;99.90
30336;DHT22;17142;47.990;7.846;2024-02-15T13:11:52;15.60;99.90
30336;DHT22;17142;47.990;7.846;2024-02-15T13:14:20;15.80;99.90
30336;DHT22;17142;47.990;7.846;2024-02-15T13:16:46;15.90;99.90
30336;DHT22;17142;47.990;7.846;2024-02-15T13:19:13;15.90;99.90
30336;DHT22;17142;47.990;7.846;2024-02-15T13:21:39;15.70;99.90
30336;DHT22;17142;47.990;7.846;2024-02-15T13:24:05;15.70;99.90
30336;DHT22;17142;47.990;7.846;2024-02-15T13:26:31;15.50;99.90
30336;DHT22;17142;47.990;7.846;2024-02-15T13:28:59;15.60;99.90
30336;DHT22;17142;47.990;7.846;2024-02-15T13:31:27;15.60;99.90
30336;DHT22;17142;47.990;7.846;2024-02-15T13:33:53;15.50;99.90
30336;DHT22;17142;47.990;7.846;2024-02-15T13:36:18;15.50;99.90
30336;DHT22;17142;47.990;7.846;2024-02-15T13:38:45;15.60;99.90
30336;DHT22;17142;47.990;7.846;2024-02-15T13:41:14;15.50;99.90
30336;DHT22;17142;47.990;7.846;2024-02-15T13:43:40;15.50;99.90
30336;DHT22;17142;47.990;7.846;2024-02-15T13:46:06;15.60;99.90
30336;DHT22;17142;47.990;7.846;2024-02-15T13:48:32;15.60;99.90
30336;DHT22;17142;47.990;7.846;2024-02-15T13:50:58;15.60;99.90
30336;DHT22;17142;47.990;7.846;2024-02-15T13:53:23;15.70;99.90
30336;DHT22;17142;47.990;7.846;2024-02-15T13:55:52;15.70;99.90
30336;DHT22;17142;47.990;7.846;2024-02-15T13:58:18;15.60;99.90
30336;DHT22;17142;47.990;7.846;2024-02-15T14:00:44;15.60;99.90
30336;DHT22;17142;47.990;7.846;2024-02-15T14:03:11;15.50;99.90
30336;DHT22;17142;47.990;7.846;2024-02-15T14:05:37;15.40;99.90
30336;DHT22;17142;47.990;7.846;2024-02-15T14:08:06;15.50;99.90
30336;DHT22;17142;47.990;7.846;2024-02-15T14:10:34;15.50;99.90
30336;DHT22;17142;47.990;7.846;2024-02-15T14:13:02;15.50;99.90
30336;DHT22;17142;47.990;7.846;2024-02-15T14:15:34;15.50;99.90
30336;DHT22;17142;47.990;7.846;2024-02-15T14:18:04;15.50;99.90
30336;DHT22;17142;47.990;7.846;2024-02-15T14:20:32;15.40;99.90
30336;DHT22;17142;47.990;7.846;2024-02-15T14:23:00;15.40;99.90
30336;DHT22;17142;47.990;7.846;2024-02-15T14:25:31;15.40;99.90
30336;DHT22;17142;47.990;7.846;2024-02-15T14:28:00;15.40;99.90
30336;DHT22;17142;47.990;7.846;2024-02-15T14:30:26;15.50;99.90
30336;DHT22;17142;47.990;7.846;2024-02-15T14:33:12;15.50;99.90
30336;DHT22;17142;47.990;7.846;2024-02-15T14:35:41;15.50;99.90
30336;DHT22;17142;47.990;7.846;2024-02-15T14:38:11;15.40;99.90
30336;DHT22;17142;47.990;7.846;2024-02-15T14:43:04;15.50;99.90
30336;DHT22;17142;47.990;7.846;2024-02-15T14:45:33;15.50;99.90
30336;DHT22;17142;47.990;7.846;2024-02-15T14:48:02;15.40;99.90
30336;DHT22;17142;47.990;7.846;2024-02-15T14:50:28;15.40;99.90
30336;DHT22;17142;47.990;7.846;2024-02-15T14:52:54;15.40;99.90
30336;DHT22;17142;47.990;7.846;2024-02-15T14:55:20;15.30;99.90
30336;DHT22;17142;47.990;7.846;2024-02-15T14:57:49;15.20;99.90
30336;DHT22;17142;47.990;7.846;2024-02-15T15:00:15;15.20;99.90
30336;DHT22;17142;47.990;7.846;2024-02-15T15:02:47;15.20;99.90
30336;DHT22;17142;47.990;7.846;2024-02-15T15:05:14;15.20;99.90
30336;DHT22;17142;47.990;7.846;2024-02-15T15:07:59;15.10;99.90
30336;DHT22;17142;47.990;7.846;2024-02-15T15:10:45;15.00;99.90
30336;DHT22;17142;47.990;7.846;2024-02-15T15:13:34;15.00;99.90
30336;DHT22;17142;47.990;7.846;2024-02-15T15:16:00;14.90;99.90
30336;DHT22;17142;47.990;7.846;2024-02-15T15:18:28;14.90;99.90
30336;DHT22;17142;47.990;7.846;2024-02-15T15:20:55;14.90;99.90
30336;DHT22;17142;47.990;7.846;2024-02-15T15:23:21;14.80;99.90
30336;DHT22;17142;47.990;7.846;2024-02-15T15:25:47;14.80;99.90
30336;DHT22;17142;47.990;7.846;2024-02-15T15:28:13;14.80;99.90
30336;DHT22;17142;47.990;7.846;2024-02-15T15:30:48;14.80;99.90
30336;DHT22;17142;47.990;7.846;2024-02-15T15:33:17;14.80;99.90
30336;DHT22;17142;47.990;7.846;2024-02-15T15:35:44;14.70;99.90
30336;DHT22;17142;47.990;7.846;2024-02-15T15:38:10;14.70;99.90
30336;DHT22;17142;47.990;7.846;2024-02-15T15:40:38;14.70;99.90
30336;DHT22;17142;47.990;7.846;2024-02-15T15:43:07;14.50;99.90
30336;DHT22;17142;47.990;7.846;2024-02-15T15:45:34;14.50;99.90
30336;DHT22;17142;47.990;7.846;2024-02-15T15:48:00;14.40;99.90
30336;DHT22;17142;47.990;7.846;2024-02-15T15:50:27;14.40;99.90
30336;DHT22;17142;47.990;7.846;2024-02-15T15:52:56;14.40;99.90
30336;DHT22;17142;47.990;7.846;2024-02-15T15:55:23;14.20;99.90
30336;DHT22;17142;47.990;7.846;2024-02-15T15:57:49;14.10;99.90
30336;DHT22;17142;47.990;7.846;2024-02-15T16:00:15;14.10;99.90
30336;DHT22;17142;47.990;7.846;2024-02-15T16:02:45;14.00;99.90
30336;DHT22;17142;47.990;7.846;2024-02-15T16:05:14;14.00;99.90
30336;DHT22;17142;47.990;7.846;2024-02-15T16:07:42;13.90;99.90
30336;DHT22;17142;47.990;7.846;2024-02-15T16:10:10;13.90;99.90
30336;DHT22;17142;47.990;7.846;2024-02-15T16:12:42;13.80;99.90
30336;DHT22;17142;47.990;7.846;2024-02-15T16:15:11;13.80;99.90
30336;DHT22;17142;47.990;7.846;2024-02-15T16:17:42;13.80;99.90
30336;DHT22;17142;47.990;7.846;2024-02-15T16:20:11;13.70;99.90